WXM80 ListenWXM80 Stop

You find our weather info also at:

UK Metoffice

WeatherCloud

Weather Underground

Northeastern Weather Network

AWEKAS

Citizen Weather Observer Program (CWOP)

HAMweather, WeatherForYou, PWS Weather


Weather Underground History page Text

Daily Summary for April 4, 2017 Units:  Both    English   Metric
« Previous Day
Next Day »
Daily Weekly Monthly Yearly Custom
  High: Low: Average:
Temperature: 52.6 °F /  11.4 °C 42.4 °F /  5.8 °C 46.1 °F /  7.8 °C
Dew Point: 52.0 °F /  11.1 °C 34.8 °F /  1.6 °C 44.4 °F /  6.9 °C
Humidity: 98 % 53 % 94 %
Wind Speed: 11.8 mph /  19 km/h - 4.4 mph /  7.1 km/h
Wind Gust: 19.6 mph /  31.5 km/h - -
Wind:- - East
Pressure: 29.87 in /  1011.4 hPa 29.54 in /  1000.2 hPa -
Precipitation: 0.00 in /  0 mm    
Historical Graphs
 
 
Tabular Data for April 4, 2017
Time Temperature Dew Point Pressure Wind Wind Speed Wind Gust Humidity Rainfall Rate (Hourly)
00:01 51.4 °F /  10.8 °C 34.8 °F /  1.6 °C 29.87 in /  1011.4 hPa SE 2.3 mph /  3.7 km/h 6.9 mph /  11.1 km/h 53 % 0.00 in /  0 mm
00:02 51.4 °F /  10.8 °C 34.8 °F /  1.6 °C 29.87 in /  1011.4 hPa SE 1.7 mph /  2.7 km/h 4.0 mph /  6.4 km/h 53 % 0.00 in /  0 mm
00:07 51.4 °F /  10.8 °C 34.8 °F /  1.6 °C 29.86 in /  1011.1 hPa SE 2.4 mph /  3.9 km/h 3.5 mph /  5.6 km/h 53 % 0.00 in /  0 mm
00:12 51.5 °F /  10.8 °C 35.4 °F /  1.9 °C 29.86 in /  1011.1 hPa SE 0.9 mph /  1.4 km/h 3.0 mph /  4.8 km/h 54 % 0.00 in /  0 mm
00:17 51.5 °F /  10.8 °C 36.8 °F /  2.7 °C 29.86 in /  1011.1 hPa SSE 0.3 mph /  0.5 km/h 3.5 mph /  5.6 km/h 57 % 0.00 in /  0 mm
00:22 51.5 °F /  10.8 °C 37.2 °F /  2.9 °C 29.85 in /  1010.7 hPa East 2.2 mph /  3.5 km/h 5.8 mph /  9.3 km/h 58 % 0.00 in /  0 mm
00:23 51.5 °F /  10.8 °C 37.2 °F /  2.9 °C 29.85 in /  1010.7 hPa SE 1.7 mph /  2.7 km/h 4.6 mph /  7.4 km/h 58 % 0.00 in /  0 mm
00:28 51.4 °F /  10.8 °C 37.5 °F /  3.1 °C 29.85 in /  1010.7 hPa ESE 1.2 mph /  1.9 km/h 2.3 mph /  3.7 km/h 59 % 0.00 in /  0 mm
00:33 51.3 °F /  10.7 °C 38.3 °F /  3.5 °C 29.84 in /  1010.4 hPa ESE 1.8 mph /  2.9 km/h 4.6 mph /  7.4 km/h 61 % 0.00 in /  0 mm
00:38 51.1 °F /  10.6 °C 37.7 °F /  3.2 °C 29.84 in /  1010.4 hPa SSE 2.0 mph /  3.2 km/h 3.5 mph /  5.6 km/h 60 % 0.00 in /  0 mm
00:43 51.0 °F /  10.6 °C 38.8 °F /  3.8 °C 29.84 in /  1010.4 hPa SSE 2.3 mph /  3.7 km/h 8.1 mph /  13 km/h 63 % 0.00 in /  0 mm
00:48 51.0 °F /  10.6 °C 39.6 °F /  4.2 °C 29.84 in /  1010.4 hPa SE 4.2 mph /  6.8 km/h 6.9 mph /  11.1 km/h 65 % 0.00 in /  0 mm
00:53 50.8 °F /  10.4 °C 40.6 °F /  4.8 °C 29.84 in /  1010.4 hPa SSE 5.3 mph /  8.5 km/h 10.4 mph /  16.7 km/h 68 % 0.00 in /  0 mm
00:58 50.7 °F /  10.4 °C 41.6 °F /  5.3 °C 29.83 in /  1010 hPa ESE 2.9 mph /  4.7 km/h 5.8 mph /  9.3 km/h 71 % 0.00 in /  0 mm
01:03 50.5 °F /  10.3 °C 42.2 °F /  5.7 °C 29.83 in /  1010 hPa SSE 4.8 mph /  7.7 km/h 10.4 mph /  16.7 km/h 73 % 0.00 in /  0 mm
01:08 50.3 °F /  10.2 °C 43.0 °F /  6.1 °C 29.82 in /  1009.7 hPa SE 3.0 mph /  4.8 km/h 5.8 mph /  9.3 km/h 76 % 0.00 in /  0 mm
01:13 50.1 °F /  10.1 °C 43.5 °F /  6.4 °C 29.82 in /  1009.7 hPa SE 3.6 mph /  5.8 km/h 9.0 mph /  14.5 km/h 78 % 0.00 in /  0 mm
01:18 49.9 °F /  9.9 °C 43.3 °F /  6.3 °C 29.81 in /  1009.4 hPa SSE 4.3 mph /  6.9 km/h 11.0 mph /  17.7 km/h 78 % 0.00 in /  0 mm
01:23 49.8 °F /  9.9 °C 43.5 °F /  6.4 °C 29.81 in /  1009.4 hPa SE 1.7 mph /  2.7 km/h 8.1 mph /  13 km/h 79 % 0.00 in /  0 mm
01:28 49.7 °F /  9.8 °C 43.5 °F /  6.4 °C 29.80 in /  1009 hPa South 3.7 mph /  6 km/h 8.1 mph /  13 km/h 79 % 0.00 in /  0 mm
01:33 49.6 °F /  9.8 °C 43.7 °F /  6.5 °C 29.80 in /  1009 hPa SE 5.7 mph /  9.2 km/h 10.4 mph /  16.7 km/h 80 % 0.00 in /  0 mm
01:38 49.4 °F /  9.7 °C 43.8 °F /  6.6 °C 29.80 in /  1009 hPa SE 8.3 mph /  13.4 km/h 10.4 mph /  16.7 km/h 81 % 0.00 in /  0 mm
01:43 49.3 °F /  9.6 °C 44.0 °F /  6.7 °C 29.79 in /  1008.7 hPa ESE 4.1 mph /  6.6 km/h 13.8 mph /  22.2 km/h 82 % 0.00 in /  0 mm
01:48 49.1 °F /  9.5 °C 44.2 °F /  6.8 °C 29.79 in /  1008.7 hPa SSE 7.5 mph /  12.1 km/h 12.7 mph /  20.4 km/h 83 % 0.00 in /  0 mm
01:53 49.1 °F /  9.5 °C 44.5 °F /  6.9 °C 29.78 in /  1008.4 hPa SE 9.2 mph /  14.8 km/h 12.7 mph /  20.4 km/h 84 % 0.00 in /  0 mm
01:59 49.0 °F /  9.4 °C 44.7 °F /  7.1 °C 29.77 in /  1008 hPa East 7.6 mph /  12.2 km/h 13.8 mph /  22.2 km/h 85 % 0.00 in /  0 mm
02:04 48.9 °F /  9.4 °C 45.2 °F /  7.3 °C 29.77 in /  1008 hPa South 5.4 mph /  8.7 km/h 11.0 mph /  17.7 km/h 87 % 0.00 in /  0 mm
02:09 48.9 °F /  9.4 °C 45.5 °F /  7.5 °C 29.77 in /  1008 hPa ESE 5.2 mph /  8.4 km/h 10.4 mph /  16.7 km/h 88 % 0.00 in /  0 mm
02:14 48.8 °F /  9.3 °C 45.4 °F /  7.4 °C 29.76 in /  1007.7 hPa SSE 7.7 mph /  12.4 km/h 12.7 mph /  20.4 km/h 88 % 0.00 in /  0 mm
02:19 48.8 °F /  9.3 °C 45.7 °F /  7.6 °C 29.76 in /  1007.7 hPa SSE 3.9 mph /  6.3 km/h 5.8 mph /  9.3 km/h 89 % 0.00 in /  0 mm
02:24 48.8 °F /  9.3 °C 46.0 °F /  7.8 °C 29.76 in /  1007.7 hPa South 9.3 mph /  15 km/h 15.0 mph /  24.1 km/h 90 % 0.00 in /  0 mm
02:29 48.8 °F /  9.3 °C 46.0 °F /  7.8 °C 29.75 in /  1007.3 hPa SE 9.0 mph /  14.5 km/h 17.3 mph /  27.8 km/h 90 % 0.00 in /  0 mm
02:34 48.8 °F /  9.3 °C 46.3 °F /  7.9 °C 29.74 in /  1007 hPa ESE 10.1 mph /  16.3 km/h 17.3 mph /  27.8 km/h 91 % 0.00 in /  0 mm
02:39 48.8 °F /  9.3 °C 46.3 °F /  7.9 °C 29.74 in /  1007 hPa ESE 6.6 mph /  10.6 km/h 13.8 mph /  22.2 km/h 91 % 0.00 in /  0 mm
02:44 48.8 °F /  9.3 °C 46.6 °F /  8.1 °C 29.74 in /  1007 hPa SSE 6.2 mph /  10 km/h 12.0 mph /  19.3 km/h 92 % 0.00 in /  0 mm
02:49 48.8 °F /  9.3 °C 46.6 °F /  8.1 °C 29.73 in /  1006.7 hPa East 4.7 mph /  7.6 km/h 11.5 mph /  18.5 km/h 92 % 0.00 in /  0 mm
02:54 48.9 °F /  9.4 °C 46.7 °F /  8.2 °C 29.74 in /  1007 hPa East 8.4 mph /  13.5 km/h 16.1 mph /  25.9 km/h 92 % 0.00 in /  0 mm
02:59 48.9 °F /  9.4 °C 47.0 °F /  8.3 °C 29.73 in /  1006.7 hPa SE 6.3 mph /  10.1 km/h 12.7 mph /  20.4 km/h 93 % 0.00 in /  0 mm
03:04 48.9 °F /  9.4 °C 47.0 °F /  8.3 °C 29.72 in /  1006.3 hPa SSE 9.0 mph /  14.5 km/h 17.3 mph /  27.8 km/h 93 % 0.00 in /  0 mm
03:05 48.9 °F /  9.4 °C 47.0 °F /  8.3 °C 29.72 in /  1006.3 hPa SE 4.2 mph /  6.8 km/h 11.5 mph /  18.5 km/h 93 % 0.00 in /  0 mm
03:10 48.9 °F /  9.4 °C 47.0 °F /  8.3 °C 29.73 in /  1006.7 hPa East 8.2 mph /  13.2 km/h 11.5 mph /  18.5 km/h 93 % 0.00 in /  0 mm
03:15 48.9 °F /  9.4 °C 47.2 °F /  8.4 °C 29.71 in /  1006 hPa SSE 8.2 mph /  13.2 km/h 15.0 mph /  24.1 km/h 94 % 0.00 in /  0 mm
03:20 48.9 °F /  9.4 °C 47.2 °F /  8.4 °C 29.72 in /  1006.3 hPa SE 8.3 mph /  13.4 km/h 13.0 mph /  20.9 km/h 94 % 0.00 in /  0 mm
03:25 48.9 °F /  9.4 °C 47.2 °F /  8.4 °C 29.71 in /  1006 hPa SSE 7.4 mph /  11.9 km/h 15.0 mph /  24.1 km/h 94 % 0.00 in /  0 mm
03:30 48.9 °F /  9.4 °C 47.2 °F /  8.4 °C 29.73 in /  1006.7 hPa SE 7.1 mph /  11.4 km/h 14.0 mph /  22.5 km/h 94 % 0.00 in /  0 mm
03:35 48.9 °F /  9.4 °C 47.2 °F /  8.4 °C 29.72 in /  1006.3 hPa SSE 4.2 mph /  6.8 km/h 10.4 mph /  16.7 km/h 94 % 0.00 in /  0 mm
03:40 48.9 °F /  9.4 °C 47.2 °F /  8.4 °C 29.71 in /  1006 hPa SE 6.7 mph /  10.8 km/h 12.7 mph /  20.4 km/h 94 % 0.00 in /  0 mm
03:45 48.9 °F /  9.4 °C 47.2 °F /  8.4 °C 29.71 in /  1006 hPa SSE 5.8 mph /  9.3 km/h 15.0 mph /  24.1 km/h 94 % 0.00 in /  0 mm
03:50 48.8 °F /  9.3 °C 47.2 °F /  8.4 °C 29.70 in /  1005.6 hPa SSE 7.3 mph /  11.7 km/h 12.7 mph /  20.4 km/h 94 % 0.00 in /  0 mm
03:55 48.7 °F /  9.3 °C 47.1 °F /  8.4 °C 29.70 in /  1005.6 hPa ESE 10.2 mph /  16.4 km/h 19.6 mph /  31.5 km/h 94 % 0.00 in /  0 mm
04:00 48.6 °F /  9.2 °C 47.0 °F /  8.3 °C 29.69 in /  1005.3 hPa SSE 9.0 mph /  14.5 km/h 17.3 mph /  27.8 km/h 94 % 0.00 in /  0 mm
04:05 48.6 °F /  9.2 °C 47.0 °F /  8.3 °C 29.69 in /  1005.3 hPa SSE 5.7 mph /  9.2 km/h 15.0 mph /  24.1 km/h 94 % 0.00 in /  0 mm
04:10 48.6 °F /  9.2 °C 47.0 °F /  8.3 °C 29.69 in /  1005.3 hPa ESE 5.5 mph /  8.9 km/h 8.1 mph /  13 km/h 94 % 0.00 in /  0 mm
04:15 48.6 °F /  9.2 °C 47.2 °F /  8.4 °C 29.68 in /  1005 hPa ESE 7.7 mph /  12.4 km/h 11.5 mph /  18.5 km/h 95 % 0.00 in /  0 mm
04:20 48.6 °F /  9.2 °C 47.2 °F /  8.4 °C 29.68 in /  1005 hPa SE 4.7 mph /  7.6 km/h 6.9 mph /  11.1 km/h 95 % 0.00 in /  0 mm
04:25 48.7 °F /  9.3 °C 47.3 °F /  8.5 °C 29.67 in /  1004.6 hPa SSE 7.9 mph /  12.7 km/h 16.1 mph /  25.9 km/h 95 % 0.00 in /  0 mm
04:30 48.8 °F /  9.3 °C 47.4 °F /  8.6 °C 29.66 in /  1004.3 hPa East 5.7 mph /  9.2 km/h 8.1 mph /  13 km/h 95 % 0.00 in /  0 mm
04:35 49.0 °F /  9.4 °C 47.9 °F /  8.8 °C 29.66 in /  1004.3 hPa SE 7.5 mph /  12.1 km/h 19.6 mph /  31.5 km/h 96 % 0.00 in /  0 mm
04:40 49.2 °F /  9.6 °C 48.1 °F /  8.9 °C 29.64 in /  1003.6 hPa SE 8.0 mph /  12.9 km/h 13.0 mph /  20.9 km/h 96 % 0.00 in /  0 mm
04:45 49.4 °F /  9.7 °C 48.3 °F /  9.1 °C 29.65 in /  1003.9 hPa East 7.0 mph /  11.3 km/h 10.4 mph /  16.7 km/h 96 % 0.00 in /  0 mm
04:50 49.5 °F /  9.7 °C 48.4 °F /  9.1 °C 29.64 in /  1003.6 hPa SE 4.9 mph /  7.9 km/h 13.8 mph /  22.2 km/h 96 % 0.00 in /  0 mm
04:55 49.6 °F /  9.8 °C 48.5 °F /  9.2 °C 29.63 in /  1003.3 hPa ESE 7.4 mph /  11.9 km/h 15.0 mph /  24.1 km/h 96 % 0.00 in /  0 mm
05:00 49.7 °F /  9.8 °C 48.6 °F /  9.2 °C 29.63 in /  1003.3 hPa ENE 4.6 mph /  7.4 km/h 12.7 mph /  20.4 km/h 96 % 0.00 in /  0 mm
05:05 49.8 °F /  9.9 °C 48.7 °F /  9.3 °C 29.63 in /  1003.3 hPa SSE 11.3 mph /  18.2 km/h 17.3 mph /  27.8 km/h 96 % 0.00 in /  0 mm
05:10 50.0 °F /  10 °C 48.9 °F /  9.4 °C 29.64 in /  1003.6 hPa South 3.4 mph /  5.5 km/h 10.4 mph /  16.7 km/h 96 % 0.00 in /  0 mm
05:15 50.1 °F /  10.1 °C 49.0 °F /  9.4 °C 29.67 in /  1004.6 hPa SW 3.9 mph /  6.3 km/h 8.1 mph /  13 km/h 96 % 0.00 in /  0 mm
05:19 50.2 °F /  10.1 °C 49.1 °F /  9.5 °C 29.66 in /  1004.3 hPa WNW 1.8 mph /  2.9 km/h 4.6 mph /  7.4 km/h 96 % 0.00 in /  0 mm
05:24 50.3 °F /  10.2 °C 49.2 °F /  9.6 °C 29.66 in /  1004.3 hPa WSW 1.8 mph /  2.9 km/h 3.5 mph /  5.6 km/h 96 % 0.01 in /  0.25 mm
05:29 50.2 °F /  10.1 °C 49.1 °F /  9.5 °C 29.66 in /  1004.3 hPa NNE 5.8 mph /  9.3 km/h 8.1 mph /  13 km/h 96 % 0.01 in /  0.25 mm
05:34 49.7 °F /  9.8 °C 48.6 °F /  9.2 °C 29.67 in /  1004.6 hPa West 0.1 mph /  0.2 km/h 3.5 mph /  5.6 km/h 96 % 0.01 in /  0.25 mm
05:39 49.5 °F /  9.7 °C 48.4 °F /  9.1 °C 29.66 in /  1004.3 hPa ENE 2.3 mph /  3.7 km/h 5.8 mph /  9.3 km/h 96 % 0.01 in /  0.25 mm
05:44 49.2 °F /  9.6 °C 48.1 °F /  8.9 °C 29.66 in /  1004.3 hPa SW 1.1 mph /  1.8 km/h 3.5 mph /  5.6 km/h 96 % 0.01 in /  0.25 mm
05:49 49.1 °F /  9.5 °C 48.0 °F /  8.9 °C 29.66 in /  1004.3 hPa South 0.9 mph /  1.4 km/h 3.5 mph /  5.6 km/h 96 % 0.01 in /  0.25 mm
05:54 49.1 °F /  9.5 °C 48.0 °F /  8.9 °C 29.66 in /  1004.3 hPa South 1.2 mph /  1.9 km/h 2.3 mph /  3.7 km/h 96 % 0.01 in /  0.25 mm
05:59 49.0 °F /  9.4 °C 47.9 °F /  8.8 °C 29.66 in /  1004.3 hPa ESE 1.9 mph /  3.1 km/h 3.5 mph /  5.6 km/h 96 % 0.01 in /  0.25 mm
06:04 49.0 °F /  9.4 °C 47.9 °F /  8.8 °C 29.65 in /  1003.9 hPa ESE 1.0 mph /  1.6 km/h 1.2 mph /  1.9 km/h 96 % 0.01 in /  0.25 mm
06:09 49.0 °F /  9.4 °C 47.9 °F /  8.8 °C 29.65 in /  1003.9 hPa NE 1.4 mph /  2.3 km/h 2.3 mph /  3.7 km/h 96 % 0.01 in /  0.25 mm
06:14 49.0 °F /  9.4 °C 47.9 °F /  8.8 °C 29.65 in /  1003.9 hPa NE 2.7 mph /  4.3 km/h 3.5 mph /  5.6 km/h 96 % 0.01 in /  0.25 mm
06:19 48.9 °F /  9.4 °C 47.8 °F /  8.8 °C 29.64 in /  1003.6 hPa NNE 0.7 mph /  1.1 km/h 2.3 mph /  3.7 km/h 96 % 0.01 in /  0.25 mm
06:24 48.4 °F /  9.1 °C 47.3 °F /  8.5 °C 29.64 in /  1003.6 hPa ENE 3.7 mph /  6 km/h 6.9 mph /  11.1 km/h 96 % 0.00 in /  0 mm
06:29 48.3 °F /  9.1 °C 47.2 °F /  8.4 °C 29.64 in /  1003.6 hPa ENE 3.7 mph /  6 km/h 6.9 mph /  11.1 km/h 96 % 0.00 in /  0 mm
06:35 48.2 °F /  9 °C 47.1 °F /  8.4 °C 29.63 in /  1003.3 hPa ENE 3.0 mph /  4.8 km/h 6.9 mph /  11.1 km/h 96 % 0.00 in /  0 mm
06:40 47.9 °F /  8.8 °C 46.8 °F /  8.2 °C 29.63 in /  1003.3 hPa ENE 0.8 mph /  1.3 km/h 3.5 mph /  5.6 km/h 96 % 0.01 in /  0.25 mm
06:45 48.1 °F /  8.9 °C 47.0 °F /  8.3 °C 29.62 in /  1002.9 hPa ENE 1.3 mph /  2.1 km/h 3.5 mph /  5.6 km/h 96 % 0.01 in /  0.25 mm
06:47 48.1 °F /  8.9 °C 47.0 °F /  8.3 °C 29.63 in /  1003.3 hPa NE 3.9 mph /  6.3 km/h 4.6 mph /  7.4 km/h 96 % 0.01 in /  0.25 mm
06:52 48.2 °F /  9 °C 47.1 °F /  8.4 °C 29.62 in /  1002.9 hPa ENE 2.7 mph /  4.3 km/h 6.9 mph /  11.1 km/h 96 % 0.01 in /  0.25 mm
06:57 48.2 °F /  9 °C 47.4 °F /  8.6 °C 29.62 in /  1002.9 hPa ENE 1.8 mph /  2.9 km/h 4.6 mph /  7.4 km/h 97 % 0.01 in /  0.25 mm
07:02 48.2 °F /  9 °C 47.1 °F /  8.4 °C 29.62 in /  1002.9 hPa ENE 1.0 mph /  1.6 km/h 7.0 mph /  11.3 km/h 96 % 0.00 in /  0 mm
07:07 48.1 °F /  8.9 °C 47.0 °F /  8.3 °C 29.62 in /  1002.9 hPa ENE 1.0 mph /  1.6 km/h 3.0 mph /  4.8 km/h 96 % 0.00 in /  0 mm
07:12 48.1 °F /  8.9 °C 47.3 °F /  8.5 °C 29.62 in /  1002.9 hPa ENE 1.0 mph /  1.6 km/h 4.0 mph /  6.4 km/h 97 % 0.00 in /  0 mm
07:17 48.1 °F /  8.9 °C 47.0 °F /  8.3 °C 29.62 in /  1002.9 hPa Calm   2.0 mph /  3.2 km/h 96 % 0.00 in /  0 mm
07:22 48.2 °F /  9 °C 47.4 °F /  8.6 °C 29.62 in /  1002.9 hPa Calm   1.0 mph /  1.6 km/h 97 % 0.00 in /  0 mm
07:27 48.4 °F /  9.1 °C 47.6 °F /  8.7 °C 29.61 in /  1002.6 hPa East 1.0 mph /  1.6 km/h 2.0 mph /  3.2 km/h 97 % 0.00 in /  0 mm
07:32 48.6 °F /  9.2 °C 47.8 °F /  8.8 °C 29.61 in /  1002.6 hPa East 1.0 mph /  1.6 km/h 5.0 mph /  8 km/h 97 % 0.00 in /  0 mm
07:37 49.0 °F /  9.4 °C 48.2 °F /  9 °C 29.61 in /  1002.6 hPa East 1.0 mph /  1.6 km/h 3.0 mph /  4.8 km/h 97 % 0.00 in /  0 mm
07:42 49.4 °F /  9.7 °C 48.6 °F /  9.2 °C 29.61 in /  1002.6 hPa SE 1.0 mph /  1.6 km/h 4.0 mph /  6.4 km/h 97 % 0.00 in /  0 mm
07:47 50.3 °F /  10.2 °C 49.4 °F /  9.7 °C 29.60 in /  1002.3 hPa SE 2.0 mph /  3.2 km/h 4.0 mph /  6.4 km/h 97 % 0.00 in /  0 mm
07:52 50.8 °F /  10.4 °C 50.2 °F /  10.1 °C 29.61 in /  1002.6 hPa Calm   3.0 mph /  4.8 km/h 98 % 0.00 in /  0 mm
07:57 51.3 °F /  10.7 °C 50.8 °F /  10.4 °C 29.60 in /  1002.3 hPa SW 0.2 mph /  0.3 km/h 3.5 mph /  5.6 km/h 98 % 0.00 in /  0 mm
08:02 51.6 °F /  10.9 °C 51.0 °F /  10.6 °C 29.60 in /  1002.3 hPa SSW 1.0 mph /  1.6 km/h 3.0 mph /  4.8 km/h 98 % 0.00 in /  0 mm
08:07 52.0 °F /  11.1 °C 51.4 °F /  10.8 °C 29.60 in /  1002.3 hPa Calm   2.0 mph /  3.2 km/h 98 % 0.00 in /  0 mm
08:12 52.2 °F /  11.2 °C 51.7 °F /  10.9 °C 29.60 in /  1002.3 hPa Calm   6.0 mph /  9.7 km/h 98 % 0.00 in /  0 mm
08:17 52.4 °F /  11.3 °C 51.8 °F /  11 °C 29.60 in /  1002.3 hPa Calm   3.0 mph /  4.8 km/h 98 % 0.00 in /  0 mm
08:22 52.5 °F /  11.4 °C 52.0 °F /  11.1 °C 29.60 in /  1002.3 hPa Calm   3.0 mph /  4.8 km/h 98 % 0.00 in /  0 mm
08:27 52.6 °F /  11.4 °C 51.8 °F /  11 °C 29.59 in /  1001.9 hPa SSE 0.2 mph /  0.3 km/h 1.2 mph /  1.9 km/h 97 % 0.00 in /  0 mm
08:32 52.6 °F /  11.4 °C 51.8 °F /  11 °C 29.59 in /  1001.9 hPa Calm   2.3 mph /  3.7 km/h 97 % 0.00 in /  0 mm
08:37 52.1 °F /  11.2 °C 51.6 °F /  10.9 °C 29.59 in /  1001.9 hPa NE 2.4 mph /  3.9 km/h 6.9 mph /  11.1 km/h 98 % 0.00 in /  0 mm
08:42 51.1 °F /  10.6 °C 50.3 °F /  10.2 °C 29.59 in /  1001.9 hPa NE 3.0 mph /  4.8 km/h 8.0 mph /  12.9 km/h 97 % 0.00 in /  0 mm
08:47 49.5 °F /  9.7 °C 48.5 °F /  9.2 °C 29.60 in /  1002.3 hPa NE 5.0 mph /  8 km/h 8.0 mph /  12.9 km/h 96 % 0.00 in /  0 mm
08:52 47.7 °F /  8.7 °C 46.3 °F /  7.9 °C 29.59 in /  1001.9 hPa ENE 3.0 mph /  4.8 km/h 8.0 mph /  12.9 km/h 95 % 0.00 in /  0 mm
08:57 46.4 °F /  8 °C 45.0 °F /  7.2 °C 29.59 in /  1001.9 hPa ESE 5.5 mph /  8.9 km/h 9.2 mph /  14.8 km/h 95 % 0.01 in /  0.25 mm
09:02 45.8 °F /  7.7 °C 44.7 °F /  7.1 °C 29.59 in /  1001.9 hPa East 3.8 mph /  6.1 km/h 5.8 mph /  9.3 km/h 96 % 0.01 in /  0.25 mm
09:07 45.5 °F /  7.5 °C 44.4 °F /  6.9 °C 29.59 in /  1001.9 hPa East 4.9 mph /  7.9 km/h 9.2 mph /  14.8 km/h 96 % 0.01 in /  0.25 mm
09:12 45.2 °F /  7.3 °C 44.1 °F /  6.7 °C 29.59 in /  1001.9 hPa East 6.0 mph /  9.7 km/h 8.1 mph /  13 km/h 96 % 0.01 in /  0.25 mm
09:17 44.9 °F /  7.2 °C 43.8 °F /  6.6 °C 29.59 in /  1001.9 hPa East 6.1 mph /  9.8 km/h 9.2 mph /  14.8 km/h 96 % 0.01 in /  0.25 mm
09:22 44.8 °F /  7.1 °C 43.7 °F /  6.5 °C 29.58 in /  1001.6 hPa East 4.1 mph /  6.6 km/h 6.9 mph /  11.1 km/h 96 % 0.01 in /  0.25 mm
09:27 44.5 °F /  6.9 °C 43.4 °F /  6.3 °C 29.58 in /  1001.6 hPa ENE 5.7 mph /  9.2 km/h 8.1 mph /  13 km/h 96 % 0.01 in /  0.25 mm
09:32 44.3 °F /  6.8 °C 43.2 °F /  6.2 °C 29.58 in /  1001.6 hPa East 5.2 mph /  8.4 km/h 6.9 mph /  11.1 km/h 96 % 0.01 in /  0.25 mm
09:37 44.2 °F /  6.8 °C 43.1 °F /  6.2 °C 29.58 in /  1001.6 hPa East 5.7 mph /  9.2 km/h 8.1 mph /  13 km/h 96 % 0.01 in /  0.25 mm
09:42 44.2 °F /  6.8 °C 43.4 °F /  6.3 °C 29.57 in /  1001.2 hPa East 6.6 mph /  10.6 km/h 8.1 mph /  13 km/h 97 % 0.00 in /  0 mm
09:47 44.2 °F /  6.8 °C 43.4 °F /  6.3 °C 29.57 in /  1001.2 hPa East 4.8 mph /  7.7 km/h 6.9 mph /  11.1 km/h 97 % 0.00 in /  0 mm
09:52 44.2 °F /  6.8 °C 43.4 °F /  6.3 °C 29.57 in /  1001.2 hPa East 5.4 mph /  8.7 km/h 8.1 mph /  13 km/h 97 % 0.00 in /  0 mm
09:58 44.1 °F /  6.7 °C 43.3 °F /  6.3 °C 29.57 in /  1001.2 hPa East 6.5 mph /  10.5 km/h 8.1 mph /  13 km/h 97 % 0.00 in /  0 mm
10:03 43.9 °F /  6.6 °C 43.1 °F /  6.2 °C 29.57 in /  1001.2 hPa ENE 5.0 mph /  8 km/h 7.0 mph /  11.3 km/h 97 % 0.00 in /  0 mm
10:08 43.9 °F /  6.6 °C 43.1 °F /  6.2 °C 29.57 in /  1001.2 hPa East 4.5 mph /  7.2 km/h 8.1 mph /  13 km/h 97 % 0.00 in /  0 mm
10:13 43.9 °F /  6.6 °C 43.1 °F /  6.2 °C 29.57 in /  1001.2 hPa East 4.0 mph /  6.4 km/h 5.8 mph /  9.3 km/h 97 % 0.00 in /  0 mm
10:18 43.8 °F /  6.6 °C 43.0 °F /  6.1 °C 29.57 in /  1001.2 hPa East 4.6 mph /  7.4 km/h 5.8 mph /  9.3 km/h 97 % 0.00 in /  0 mm
10:23 43.9 °F /  6.6 °C 43.1 °F /  6.2 °C 29.57 in /  1001.2 hPa East 6.3 mph /  10.1 km/h 8.0 mph /  12.9 km/h 97 % 0.00 in /  0 mm
10:28 44.0 °F /  6.7 °C 43.2 °F /  6.2 °C 29.57 in /  1001.2 hPa East 4.6 mph /  7.4 km/h 6.0 mph /  9.7 km/h 97 % 0.00 in /  0 mm
10:33 44.0 °F /  6.7 °C 43.2 °F /  6.2 °C 29.57 in /  1001.2 hPa East 4.7 mph /  7.6 km/h 5.8 mph /  9.3 km/h 97 % 0.01 in /  0.25 mm
10:38 43.9 °F /  6.6 °C 43.1 °F /  6.2 °C 29.57 in /  1001.2 hPa East 4.2 mph /  6.8 km/h 5.8 mph /  9.3 km/h 97 % 0.01 in /  0.25 mm
10:43 43.8 °F /  6.6 °C 43.0 °F /  6.1 °C 29.57 in /  1001.2 hPa East 4.5 mph /  7.2 km/h 7.0 mph /  11.3 km/h 97 % 0.01 in /  0.25 mm
10:48 43.8 °F /  6.6 °C 43.0 °F /  6.1 °C 29.57 in /  1001.2 hPa East 4.0 mph /  6.4 km/h 5.8 mph /  9.3 km/h 97 % 0.01 in /  0.25 mm
10:53 43.8 °F /  6.6 °C 43.0 °F /  6.1 °C 29.57 in /  1001.2 hPa East 5.2 mph /  8.4 km/h 6.0 mph /  9.7 km/h 97 % 0.01 in /  0.25 mm
10:58 43.8 °F /  6.6 °C 43.0 °F /  6.1 °C 29.57 in /  1001.2 hPa East 3.6 mph /  5.8 km/h 5.8 mph /  9.3 km/h 97 % 0.01 in /  0.25 mm
11:03 43.7 °F /  6.5 °C 42.9 °F /  6.1 °C 29.57 in /  1001.2 hPa East 4.7 mph /  7.6 km/h 7.0 mph /  11.3 km/h 97 % 0.01 in /  0.25 mm
11:08 43.6 °F /  6.4 °C 42.8 °F /  6 °C 29.57 in /  1001.2 hPa ENE 4.2 mph /  6.8 km/h 6.9 mph /  11.1 km/h 97 % 0.01 in /  0.25 mm
11:14 43.6 °F /  6.4 °C 42.8 °F /  6 °C 29.57 in /  1001.2 hPa ENE 4.0 mph /  6.4 km/h 6.0 mph /  9.7 km/h 97 % 0.01 in /  0.25 mm
11:19 43.6 °F /  6.4 °C 42.8 °F /  6 °C 29.57 in /  1001.2 hPa East 3.7 mph /  6 km/h 6.0 mph /  9.7 km/h 97 % 0.01 in /  0.25 mm
11:23 43.7 °F /  6.5 °C 42.9 °F /  6.1 °C 29.56 in /  1000.9 hPa East 5.7 mph /  9.2 km/h 9.2 mph /  14.8 km/h 97 % 0.01 in /  0.25 mm
11:28 43.7 °F /  6.5 °C 42.9 °F /  6.1 °C 29.56 in /  1000.9 hPa East 5.0 mph /  8 km/h 5.8 mph /  9.3 km/h 97 % 0.01 in /  0.25 mm
11:33 43.8 °F /  6.6 °C 43.0 °F /  6.1 °C 29.56 in /  1000.9 hPa East 3.4 mph /  5.5 km/h 4.6 mph /  7.4 km/h 97 % 0.00 in /  0 mm
11:38 44.0 °F /  6.7 °C 43.2 °F /  6.2 °C 29.56 in /  1000.9 hPa East 5.4 mph /  8.7 km/h 6.9 mph /  11.1 km/h 97 % 0.00 in /  0 mm
11:43 43.9 °F /  6.6 °C 43.1 °F /  6.2 °C 29.56 in /  1000.9 hPa East 5.8 mph /  9.3 km/h 8.1 mph /  13 km/h 97 % 0.00 in /  0 mm
11:48 43.8 °F /  6.6 °C 43.0 °F /  6.1 °C 29.56 in /  1000.9 hPa East 6.1 mph /  9.8 km/h 9.2 mph /  14.8 km/h 97 % 0.00 in /  0 mm
11:53 43.8 °F /  6.6 °C 43.0 °F /  6.1 °C 29.56 in /  1000.9 hPa East 6.8 mph /  10.9 km/h 9.2 mph /  14.8 km/h 97 % 0.00 in /  0 mm
11:58 43.8 °F /  6.6 °C 43.0 °F /  6.1 °C 29.56 in /  1000.9 hPa East 5.8 mph /  9.3 km/h 8.1 mph /  13 km/h 97 % 0.00 in /  0 mm
12:03 43.8 °F /  6.6 °C 43.0 °F /  6.1 °C 29.55 in /  1000.6 hPa East 3.4 mph /  5.5 km/h 9.2 mph /  14.8 km/h 97 % 0.00 in /  0 mm
12:08 43.8 °F /  6.6 °C 43.0 °F /  6.1 °C 29.55 in /  1000.6 hPa ENE 4.9 mph /  7.9 km/h 8.1 mph /  13 km/h 97 % 0.00 in /  0 mm
12:13 43.8 °F /  6.6 °C 43.0 °F /  6.1 °C 29.55 in /  1000.6 hPa East 5.7 mph /  9.2 km/h 9.2 mph /  14.8 km/h 97 % 0.00 in /  0 mm
12:18 43.8 °F /  6.6 °C 43.0 °F /  6.1 °C 29.55 in /  1000.6 hPa ENE 5.0 mph /  8 km/h 8.1 mph /  13 km/h 97 % 0.00 in /  0 mm
12:24 43.7 °F /  6.5 °C 42.9 °F /  6.1 °C 29.55 in /  1000.6 hPa ENE 4.3 mph /  6.9 km/h 10.4 mph /  16.7 km/h 97 % 0.00 in /  0 mm
12:29 43.7 °F /  6.5 °C 42.9 °F /  6.1 °C 29.55 in /  1000.6 hPa ENE 4.8 mph /  7.7 km/h 5.8 mph /  9.3 km/h 97 % 0.00 in /  0 mm
12:34 43.7 °F /  6.5 °C 42.9 °F /  6.1 °C 29.55 in /  1000.6 hPa ENE 5.3 mph /  8.5 km/h 6.9 mph /  11.1 km/h 97 % 0.00 in /  0 mm
12:39 43.6 °F /  6.4 °C 42.8 °F /  6 °C 29.55 in /  1000.6 hPa ENE 3.6 mph /  5.8 km/h 5.8 mph /  9.3 km/h 97 % 0.00 in /  0 mm
12:44 43.4 °F /  6.3 °C 42.6 °F /  5.9 °C 29.55 in /  1000.6 hPa ENE 6.2 mph /  10 km/h 11.0 mph /  17.7 km/h 97 % 0.00 in /  0 mm
12:49 43.3 °F /  6.3 °C 42.5 °F /  5.8 °C 29.55 in /  1000.6 hPa ENE 8.4 mph /  13.5 km/h 11.5 mph /  18.5 km/h 97 % 0.01 in /  0.25 mm
12:54 43.3 °F /  6.3 °C 42.5 °F /  5.8 °C 29.54 in /  1000.2 hPa East 9.7 mph /  15.6 km/h 14.0 mph /  22.5 km/h 97 % 0.01 in /  0.25 mm
12:59 43.4 °F /  6.3 °C 42.6 °F /  5.9 °C 29.54 in /  1000.2 hPa NE 10.0 mph /  16.1 km/h 14.0 mph /  22.5 km/h 97 % 0.01 in /  0.25 mm
13:04 43.3 °F /  6.3 °C 42.8 °F /  6 °C 29.55 in /  1000.6 hPa ENE 8.9 mph /  14.3 km/h 16.1 mph /  25.9 km/h 98 % 0.01 in /  0.25 mm
13:09 43.2 °F /  6.2 °C 42.7 °F /  5.9 °C 29.55 in /  1000.6 hPa East 11.2 mph /  18 km/h 15.0 mph /  24.1 km/h 98 % 0.01 in /  0.25 mm
13:14 43.2 °F /  6.2 °C 42.4 °F /  5.8 °C 29.55 in /  1000.6 hPa ENE 10.7 mph /  17.2 km/h 16.1 mph /  25.9 km/h 97 % 0.01 in /  0.25 mm
13:19 43.3 °F /  6.3 °C 42.8 °F /  6 °C 29.55 in /  1000.6 hPa ENE 11.8 mph /  19 km/h 16.0 mph /  25.7 km/h 98 % 0.01 in /  0.25 mm
13:24 43.1 °F /  6.2 °C 42.3 °F /  5.7 °C 29.56 in /  1000.9 hPa East 10.5 mph /  16.9 km/h 13.8 mph /  22.2 km/h 97 % 0.01 in /  0.25 mm
13:29 43.0 °F /  6.1 °C 42.2 °F /  5.7 °C 29.56 in /  1000.9 hPa ENE 10.7 mph /  17.2 km/h 16.1 mph /  25.9 km/h 97 % 0.01 in /  0.25 mm
13:35 42.9 °F /  6.1 °C 42.4 °F /  5.8 °C 29.57 in /  1001.2 hPa ENE 9.6 mph /  15.4 km/h 13.8 mph /  22.2 km/h 98 % 0.01 in /  0.25 mm
13:40 42.8 °F /  6 °C 42.3 °F /  5.7 °C 29.57 in /  1001.2 hPa ENE 8.3 mph /  13.4 km/h 11.5 mph /  18.5 km/h 98 % 0.01 in /  0.25 mm
13:45 42.7 °F /  5.9 °C 42.2 °F /  5.7 °C 29.57 in /  1001.2 hPa NE 9.5 mph /  15.3 km/h 12.7 mph /  20.4 km/h 98 % 0.01 in /  0.25 mm
13:50 42.7 °F /  5.9 °C 41.9 °F /  5.5 °C 29.57 in /  1001.2 hPa ENE 7.2 mph /  11.6 km/h 11.5 mph /  18.5 km/h 97 % 0.00 in /  0 mm
13:55 42.7 °F /  5.9 °C 41.9 °F /  5.5 °C 29.58 in /  1001.6 hPa ENE 8.0 mph /  12.9 km/h 11.5 mph /  18.5 km/h 97 % 0.00 in /  0 mm
14:00 42.6 °F /  5.9 °C 41.8 °F /  5.4 °C 29.58 in /  1001.6 hPa East 7.8 mph /  12.6 km/h 10.4 mph /  16.7 km/h 97 % 0.00 in /  0 mm
14:05 42.6 °F /  5.9 °C 41.8 °F /  5.4 °C 29.58 in /  1001.6 hPa ENE 8.8 mph /  14.2 km/h 11.5 mph /  18.5 km/h 97 % 0.00 in /  0 mm
14:10 42.7 °F /  5.9 °C 41.9 °F /  5.5 °C 29.58 in /  1001.6 hPa East 8.0 mph /  12.9 km/h 10.4 mph /  16.7 km/h 97 % 0.00 in /  0 mm
14:15 42.7 °F /  5.9 °C 42.2 °F /  5.7 °C 29.57 in /  1001.2 hPa ENE 7.2 mph /  11.6 km/h 13.0 mph /  20.9 km/h 98 % 0.00 in /  0 mm
14:20 42.7 °F /  5.9 °C 42.2 °F /  5.7 °C 29.58 in /  1001.6 hPa East 8.0 mph /  12.9 km/h 10.4 mph /  16.7 km/h 98 % 0.00 in /  0 mm
14:25 42.9 °F /  6.1 °C 42.4 °F /  5.8 °C 29.58 in /  1001.6 hPa ENE 6.5 mph /  10.5 km/h 9.2 mph /  14.8 km/h 98 % 0.00 in /  0 mm
14:30 43.0 °F /  6.1 °C 42.5 °F /  5.8 °C 29.58 in /  1001.6 hPa East 6.1 mph /  9.8 km/h 8.1 mph /  13 km/h 98 % 0.00 in /  0 mm
14:35 43.3 °F /  6.3 °C 42.8 °F /  6 °C 29.58 in /  1001.6 hPa East 5.1 mph /  8.2 km/h 6.9 mph /  11.1 km/h 98 % 0.01 in /  0.25 mm
14:40 43.4 °F /  6.3 °C 42.9 °F /  6.1 °C 29.57 in /  1001.2 hPa ENE 5.8 mph /  9.3 km/h 10.4 mph /  16.7 km/h 98 % 0.01 in /  0.25 mm
14:45 43.6 °F /  6.4 °C 43.1 °F /  6.2 °C 29.57 in /  1001.2 hPa ENE 5.6 mph /  9 km/h 8.1 mph /  13 km/h 98 % 0.01 in /  0.25 mm
14:50 43.6 °F /  6.4 °C 43.1 °F /  6.2 °C 29.58 in /  1001.6 hPa ENE 4.7 mph /  7.6 km/h 7.0 mph /  11.3 km/h 98 % 0.01 in /  0.25 mm
14:55 43.7 °F /  6.5 °C 43.2 °F /  6.2 °C 29.58 in /  1001.6 hPa East 5.3 mph /  8.5 km/h 6.9 mph /  11.1 km/h 98 % 0.01 in /  0.25 mm
15:00 43.6 °F /  6.4 °C 43.1 °F /  6.2 °C 29.58 in /  1001.6 hPa East 5.6 mph /  9 km/h 7.0 mph /  11.3 km/h 98 % 0.01 in /  0.25 mm
15:05 43.6 °F /  6.4 °C 43.1 °F /  6.2 °C 29.58 in /  1001.6 hPa ENE 5.2 mph /  8.4 km/h 6.9 mph /  11.1 km/h 98 % 0.01 in /  0.25 mm
15:10 43.6 °F /  6.4 °C 43.1 °F /  6.2 °C 29.58 in /  1001.6 hPa East 5.1 mph /  8.2 km/h 6.0 mph /  9.7 km/h 98 % 0.01 in /  0.25 mm
15:15 43.8 °F /  6.6 °C 43.3 °F /  6.3 °C 29.57 in /  1001.2 hPa East 5.7 mph /  9.2 km/h 8.1 mph /  13 km/h 98 % 0.01 in /  0.25 mm
15:20 44.1 °F /  6.7 °C 43.6 °F /  6.4 °C 29.57 in /  1001.2 hPa ENE 4.8 mph /  7.7 km/h 6.9 mph /  11.1 km/h 98 % 0.01 in /  0.25 mm
15:25 44.3 °F /  6.8 °C 43.8 °F /  6.6 °C 29.58 in /  1001.6 hPa East 5.2 mph /  8.4 km/h 6.9 mph /  11.1 km/h 98 % 0.01 in /  0.25 mm
15:30 44.4 °F /  6.9 °C 43.9 °F /  6.6 °C 29.58 in /  1001.6 hPa ENE 4.1 mph /  6.6 km/h 5.0 mph /  8 km/h 98 % 0.01 in /  0.25 mm
15:35 44.6 °F /  7 °C 44.1 °F /  6.7 °C 29.57 in /  1001.2 hPa East 5.4 mph /  8.7 km/h 6.0 mph /  9.7 km/h 98 % 0.00 in /  0 mm
15:40 44.8 °F /  7.1 °C 44.3 °F /  6.8 °C 29.58 in /  1001.6 hPa East 4.7 mph /  7.6 km/h 6.9 mph /  11.1 km/h 98 % 0.00 in /  0 mm
15:45 45.1 °F /  7.3 °C 44.6 °F /  7 °C 29.57 in /  1001.2 hPa East 4.8 mph /  7.7 km/h 6.9 mph /  11.1 km/h 98 % 0.00 in /  0 mm
15:50 45.2 °F /  7.3 °C 44.7 °F /  7.1 °C 29.57 in /  1001.2 hPa East 4.6 mph /  7.4 km/h 6.0 mph /  9.7 km/h 98 % 0.00 in /  0 mm
15:55 45.1 °F /  7.3 °C 44.6 °F /  7 °C 29.57 in /  1001.2 hPa East 3.3 mph /  5.3 km/h 4.6 mph /  7.4 km/h 98 % 0.00 in /  0 mm
16:00 45.0 °F /  7.2 °C 44.5 °F /  6.9 °C 29.58 in /  1001.6 hPa East 3.2 mph /  5.1 km/h 4.6 mph /  7.4 km/h 98 % 0.00 in /  0 mm
16:06 44.9 °F /  7.2 °C 44.4 °F /  6.9 °C 29.58 in /  1001.6 hPa East 2.9 mph /  4.7 km/h 4.6 mph /  7.4 km/h 98 % 0.00 in /  0 mm
16:11 44.8 °F /  7.1 °C 44.3 °F /  6.8 °C 29.58 in /  1001.6 hPa ENE 2.6 mph /  4.2 km/h 4.0 mph /  6.4 km/h 98 % 0.00 in /  0 mm
16:16 44.7 °F /  7.1 °C 44.2 °F /  6.8 °C 29.58 in /  1001.6 hPa ENE 2.6 mph /  4.2 km/h 3.5 mph /  5.6 km/h 98 % 0.00 in /  0 mm
16:21 44.7 °F /  7.1 °C 44.2 °F /  6.8 °C 29.58 in /  1001.6 hPa East 3.2 mph /  5.1 km/h 3.5 mph /  5.6 km/h 98 % 0.00 in /  0 mm
16:26 44.9 °F /  7.2 °C 44.4 °F /  6.9 °C 29.58 in /  1001.6 hPa ENE 2.7 mph /  4.3 km/h 4.0 mph /  6.4 km/h 98 % 0.00 in /  0 mm
16:31 45.1 °F /  7.3 °C 44.6 °F /  7 °C 29.58 in /  1001.6 hPa ENE 3.0 mph /  4.8 km/h 6.9 mph /  11.1 km/h 98 % 0.00 in /  0 mm
16:36 45.3 °F /  7.4 °C 44.8 °F /  7.1 °C 29.58 in /  1001.6 hPa ENE 4.6 mph /  7.4 km/h 6.9 mph /  11.1 km/h 98 % 0.00 in /  0 mm
16:41 45.2 °F /  7.3 °C 44.7 °F /  7.1 °C 29.58 in /  1001.6 hPa ENE 2.5 mph /  4 km/h 3.5 mph /  5.6 km/h 98 % 0.00 in /  0 mm
16:46 45.2 °F /  7.3 °C 44.7 °F /  7.1 °C 29.58 in /  1001.6 hPa East 4.1 mph /  6.6 km/h 6.0 mph /  9.7 km/h 98 % 0.00 in /  0 mm
16:51 45.2 °F /  7.3 °C 44.7 °F /  7.1 °C 29.58 in /  1001.6 hPa ENE 3.2 mph /  5.1 km/h 8.1 mph /  13 km/h 98 % 0.00 in /  0 mm
16:56 45.3 °F /  7.4 °C 44.8 °F /  7.1 °C 29.58 in /  1001.6 hPa ENE 3.8 mph /  6.1 km/h 5.8 mph /  9.3 km/h 98 % 0.00 in /  0 mm
17:01 45.2 °F /  7.3 °C 44.7 °F /  7.1 °C 29.58 in /  1001.6 hPa ENE 4.7 mph /  7.6 km/h 8.1 mph /  13 km/h 98 % 0.00 in /  0 mm
17:06 45.2 °F /  7.3 °C 44.7 °F /  7.1 °C 29.59 in /  1001.9 hPa NE 3.3 mph /  5.3 km/h 3.5 mph /  5.6 km/h 98 % 0.01 in /  0.25 mm
17:11 45.2 °F /  7.3 °C 44.7 °F /  7.1 °C 29.59 in /  1001.9 hPa ENE 4.1 mph /  6.6 km/h 6.9 mph /  11.1 km/h 98 % 0.01 in /  0.25 mm
17:16 45.0 °F /  7.2 °C 44.5 °F /  6.9 °C 29.59 in /  1001.9 hPa ENE 4.2 mph /  6.8 km/h 5.8 mph /  9.3 km/h 98 % 0.01 in /  0.25 mm
17:21 45.0 °F /  7.2 °C 44.5 °F /  6.9 °C 29.59 in /  1001.9 hPa ENE 5.3 mph /  8.5 km/h 8.1 mph /  13 km/h 98 % 0.01 in /  0.25 mm
17:26 44.9 °F /  7.2 °C 44.4 °F /  6.9 °C 29.59 in /  1001.9 hPa ENE 2.6 mph /  4.2 km/h 6.9 mph /  11.1 km/h 98 % 0.01 in /  0.25 mm
17:31 44.9 °F /  7.2 °C 44.4 °F /  6.9 °C 29.60 in /  1002.3 hPa East 1.9 mph /  3.1 km/h 3.5 mph /  5.6 km/h 98 % 0.01 in /  0.25 mm
17:37 45.0 °F /  7.2 °C 44.5 °F /  6.9 °C 29.59 in /  1001.9 hPa East 3.0 mph /  4.8 km/h 4.6 mph /  7.4 km/h 98 % 0.01 in /  0.25 mm
17:42 45.1 °F /  7.3 °C 44.6 °F /  7 °C 29.59 in /  1001.9 hPa East 4.0 mph /  6.4 km/h 6.0 mph /  9.7 km/h 98 % 0.01 in /  0.25 mm
17:47 45.2 °F /  7.3 °C 44.7 °F /  7.1 °C 29.60 in /  1002.3 hPa ENE 4.0 mph /  6.4 km/h 5.8 mph /  9.3 km/h 98 % 0.02 in /  0.51 mm
17:52 45.1 °F /  7.3 °C 44.6 °F /  7 °C 29.60 in /  1002.3 hPa ENE 3.4 mph /  5.5 km/h 5.0 mph /  8 km/h 98 % 0.02 in /  0.51 mm
17:57 44.7 °F /  7.1 °C 44.2 °F /  6.8 °C 29.60 in /  1002.3 hPa ENE 4.0 mph /  6.4 km/h 5.0 mph /  8 km/h 98 % 0.02 in /  0.51 mm
18:02 44.6 °F /  7 °C 44.1 °F /  6.7 °C 29.61 in /  1002.6 hPa ENE 3.2 mph /  5.1 km/h 5.0 mph /  8 km/h 98 % 0.02 in /  0.51 mm
18:07 44.6 °F /  7 °C 44.1 °F /  6.7 °C 29.61 in /  1002.6 hPa ENE 2.2 mph /  3.5 km/h 3.5 mph /  5.6 km/h 98 % 0.01 in /  0.25 mm
18:12 44.6 °F /  7 °C 44.1 °F /  6.7 °C 29.61 in /  1002.6 hPa East 2.8 mph /  4.5 km/h 3.5 mph /  5.6 km/h 98 % 0.01 in /  0.25 mm
18:17 44.5 °F /  6.9 °C 44.0 °F /  6.7 °C 29.62 in /  1002.9 hPa ENE 3.9 mph /  6.3 km/h 7.0 mph /  11.3 km/h 98 % 0.01 in /  0.25 mm
18:22 44.5 °F /  6.9 °C 44.0 °F /  6.7 °C 29.61 in /  1002.6 hPa ENE 3.5 mph /  5.6 km/h 5.8 mph /  9.3 km/h 98 % 0.01 in /  0.25 mm
18:27 44.4 °F /  6.9 °C 43.9 °F /  6.6 °C 29.61 in /  1002.6 hPa ENE 2.3 mph /  3.7 km/h 3.5 mph /  5.6 km/h 98 % 0.02 in /  0.51 mm
18:32 44.3 °F /  6.8 °C 43.8 °F /  6.6 °C 29.61 in /  1002.6 hPa East 2.6 mph /  4.2 km/h 3.5 mph /  5.6 km/h 98 % 0.02 in /  0.51 mm
18:37 44.3 °F /  6.8 °C 43.8 °F /  6.6 °C 29.62 in /  1002.9 hPa ENE 3.4 mph /  5.5 km/h 4.6 mph /  7.4 km/h 98 % 0.02 in /  0.51 mm
18:42 44.2 °F /  6.8 °C 43.7 °F /  6.5 °C 29.62 in /  1002.9 hPa ENE 3.3 mph /  5.3 km/h 4.6 mph /  7.4 km/h 98 % 0.02 in /  0.51 mm
18:47 44.1 °F /  6.7 °C 43.6 °F /  6.4 °C 29.62 in /  1002.9 hPa NE 2.8 mph /  4.5 km/h 5.0 mph /  8 km/h 98 % 0.01 in /  0.25 mm
18:52 44.1 °F /  6.7 °C 43.6 °F /  6.4 °C 29.61 in /  1002.6 hPa ENE 3.8 mph /  6.1 km/h 4.6 mph /  7.4 km/h 98 % 0.01 in /  0.25 mm
18:57 44.0 °F /  6.7 °C 43.5 °F /  6.4 °C 29.61 in /  1002.6 hPa ENE 3.6 mph /  5.8 km/h 6.9 mph /  11.1 km/h 98 % 0.01 in /  0.25 mm
19:02 44.0 °F /  6.7 °C 43.5 °F /  6.4 °C 29.61 in /  1002.6 hPa ENE 2.9 mph /  4.7 km/h 4.6 mph /  7.4 km/h 98 % 0.01 in /  0.25 mm
19:07 43.9 °F /  6.6 °C 43.4 °F /  6.3 °C 29.61 in /  1002.6 hPa ENE 6.0 mph /  9.7 km/h 8.0 mph /  12.9 km/h 98 % 0.00 in /  0 mm
19:12 43.9 °F /  6.6 °C 43.4 °F /  6.3 °C 29.61 in /  1002.6 hPa ENE 5.0 mph /  8 km/h 9.0 mph /  14.5 km/h 98 % 0.00 in /  0 mm
19:17 43.9 °F /  6.6 °C 43.4 °F /  6.3 °C 29.62 in /  1002.9 hPa ENE 2.0 mph /  3.2 km/h 5.0 mph /  8 km/h 98 % 0.00 in /  0 mm
19:22 43.9 °F /  6.6 °C 43.4 °F /  6.3 °C 29.61 in /  1002.6 hPa East 4.5 mph /  7.2 km/h 5.8 mph /  9.3 km/h 98 % 0.02 in /  0.51 mm
19:27 43.9 °F /  6.6 °C 43.4 °F /  6.3 °C 29.61 in /  1002.6 hPa East 3.0 mph /  4.8 km/h 6.0 mph /  9.7 km/h 98 % 0.00 in /  0 mm
19:32 43.9 °F /  6.6 °C 43.4 °F /  6.3 °C 29.61 in /  1002.6 hPa East 5.0 mph /  8 km/h 6.0 mph /  9.7 km/h 98 % 0.00 in /  0 mm
19:37 44.0 °F /  6.7 °C 43.5 °F /  6.4 °C 29.61 in /  1002.6 hPa East 6.0 mph /  9.7 km/h 8.0 mph /  12.9 km/h 98 % 0.00 in /  0 mm
19:42 44.1 °F /  6.7 °C 43.6 °F /  6.4 °C 29.61 in /  1002.6 hPa East 6.0 mph /  9.7 km/h 8.0 mph /  12.9 km/h 98 % 0.00 in /  0 mm
19:47 44.1 °F /  6.7 °C 43.6 °F /  6.4 °C 29.61 in /  1002.6 hPa East 6.0 mph /  9.7 km/h 8.0 mph /  12.9 km/h 98 % 0.00 in /  0 mm
19:52 44.1 °F /  6.7 °C 43.6 °F /  6.4 °C 29.61 in /  1002.6 hPa East 6.0 mph /  9.7 km/h 8.0 mph /  12.9 km/h 98 % 0.00 in /  0 mm
19:57 44.1 °F /  6.7 °C 43.6 °F /  6.4 °C 29.61 in /  1002.6 hPa East 5.7 mph /  9.2 km/h 7.0 mph /  11.3 km/h 98 % 0.01 in /  0.25 mm
20:02 44.1 °F /  6.7 °C 43.6 °F /  6.4 °C 29.62 in /  1002.9 hPa East 4.2 mph /  6.8 km/h 5.8 mph /  9.3 km/h 98 % 0.01 in /  0.25 mm
20:08 44.1 °F /  6.7 °C 43.3 °F /  6.3 °C 29.63 in /  1003.3 hPa ENE 2.8 mph /  4.5 km/h 3.5 mph /  5.6 km/h 97 % 0.01 in /  0.25 mm
21:19 43.2 °F /  6.2 °C 42.4 °F /  5.8 °C 29.67 in /  1004.6 hPa ESE 5.1 mph /  8.2 km/h 9.2 mph /  14.8 km/h 97 % 0.00 in /  0 mm
21:24 43.1 °F /  6.2 °C 42.3 °F /  5.7 °C 29.68 in /  1005 hPa ENE 3.8 mph /  6.1 km/h 8.1 mph /  13 km/h 97 % 0.00 in /  0 mm
21:29 43.1 °F /  6.2 °C 42.3 °F /  5.7 °C 29.68 in /  1005 hPa ENE 4.7 mph /  7.6 km/h 6.9 mph /  11.1 km/h 97 % 0.00 in /  0 mm
21:34 43.1 °F /  6.2 °C 42.3 °F /  5.7 °C 29.68 in /  1005 hPa ENE 3.8 mph /  6.1 km/h 5.8 mph /  9.3 km/h 97 % 0.00 in /  0 mm
21:39 43.0 °F /  6.1 °C 42.2 °F /  5.7 °C 29.68 in /  1005 hPa ENE 4.3 mph /  6.9 km/h 8.1 mph /  13 km/h 97 % 0.00 in /  0 mm
21:44 42.9 °F /  6.1 °C 42.1 °F /  5.6 °C 29.69 in /  1005.3 hPa ENE 1.4 mph /  2.3 km/h 3.5 mph /  5.6 km/h 97 % 0.00 in /  0 mm
22:01 42.8 °F /  6 °C 42.0 °F /  5.6 °C 29.69 in /  1005.3 hPa East 4.2 mph /  6.8 km/h 7.0 mph /  11.3 km/h 97 % 0.00 in /  0 mm
22:06 42.7 °F /  5.9 °C 41.9 °F /  5.5 °C 29.70 in /  1005.6 hPa NE 2.3 mph /  3.7 km/h 3.5 mph /  5.6 km/h 97 % 0.00 in /  0 mm
22:11 42.7 °F /  5.9 °C 41.9 °F /  5.5 °C 29.70 in /  1005.6 hPa NE 0.4 mph /  0.6 km/h 2.3 mph /  3.7 km/h 97 % 0.00 in /  0 mm
22:16 42.7 °F /  5.9 °C 41.9 °F /  5.5 °C 29.71 in /  1006 hPa NNE 3.1 mph /  5 km/h 6.9 mph /  11.1 km/h 97 % 0.00 in /  0 mm
22:22 42.7 °F /  5.9 °C 41.9 °F /  5.5 °C 29.71 in /  1006 hPa NNE 4.0 mph /  6.4 km/h 6.9 mph /  11.1 km/h 97 % 0.00 in /  0 mm
22:27 42.7 °F /  5.9 °C 41.9 °F /  5.5 °C 29.72 in /  1006.3 hPa NNE 3.6 mph /  5.8 km/h 10.0 mph /  16.1 km/h 97 % 0.00 in /  0 mm
22:32 42.6 °F /  5.9 °C 41.8 °F /  5.4 °C 29.73 in /  1006.7 hPa NNE 5.5 mph /  8.9 km/h 7.0 mph /  11.3 km/h 97 % 0.00 in /  0 mm
22:37 42.6 °F /  5.9 °C 41.8 °F /  5.4 °C 29.72 in /  1006.3 hPa NE 1.9 mph /  3.1 km/h 3.5 mph /  5.6 km/h 97 % 0.00 in /  0 mm
22:42 42.6 °F /  5.9 °C 41.8 °F /  5.4 °C 29.71 in /  1006 hPa NNE 2.4 mph /  3.9 km/h 3.5 mph /  5.6 km/h 97 % 0.00 in /  0 mm
22:47 42.5 °F /  5.8 °C 41.7 °F /  5.4 °C 29.71 in /  1006 hPa ENE 2.4 mph /  3.9 km/h 3.5 mph /  5.6 km/h 97 % 0.00 in /  0 mm
22:52 42.5 °F /  5.8 °C 41.7 °F /  5.4 °C 29.71 in /  1006 hPa ENE 2.9 mph /  4.7 km/h 3.5 mph /  5.6 km/h 97 % 0.00 in /  0 mm
22:57 42.5 °F /  5.8 °C 41.7 °F /  5.4 °C 29.70 in /  1005.6 hPa ENE 2.8 mph /  4.5 km/h 3.5 mph /  5.6 km/h 97 % 0.00 in /  0 mm
23:02 42.5 °F /  5.8 °C 41.7 °F /  5.4 °C 29.69 in /  1005.3 hPa East 2.2 mph /  3.5 km/h 4.6 mph /  7.4 km/h 97 % 0.00 in /  0 mm
23:07 42.5 °F /  5.8 °C 41.7 °F /  5.4 °C 29.70 in /  1005.6 hPa East 5.0 mph /  8 km/h 5.8 mph /  9.3 km/h 97 % 0.00 in /  0 mm
23:12 42.6 °F /  5.9 °C 41.8 °F /  5.4 °C 29.70 in /  1005.6 hPa East 2.6 mph /  4.2 km/h 5.8 mph /  9.3 km/h 97 % 0.00 in /  0 mm
23:17 42.5 °F /  5.8 °C 41.7 °F /  5.4 °C 29.71 in /  1006 hPa ENE 2.4 mph /  3.9 km/h 3.5 mph /  5.6 km/h 97 % 0.00 in /  0 mm
23:22 42.5 °F /  5.8 °C 41.7 °F /  5.4 °C 29.71 in /  1006 hPa ENE 1.6 mph /  2.6 km/h 3.5 mph /  5.6 km/h 97 % 0.00 in /  0 mm
23:27 42.5 °F /  5.8 °C 41.7 °F /  5.4 °C 29.71 in /  1006 hPa ENE 2.0 mph /  3.2 km/h 3.0 mph /  4.8 km/h 97 % 0.00 in /  0 mm
23:32 42.6 °F /  5.9 °C 41.8 °F /  5.4 °C 29.71 in /  1006 hPa ENE 1.8 mph /  2.9 km/h 2.3 mph /  3.7 km/h 97 % 0.00 in /  0 mm
23:37 42.5 °F /  5.8 °C 41.7 °F /  5.4 °C 29.72 in /  1006.3 hPa NE 2.5 mph /  4 km/h 4.0 mph /  6.4 km/h 97 % 0.00 in /  0 mm
23:42 42.5 °F /  5.8 °C 41.7 °F /  5.4 °C 29.72 in /  1006.3 hPa NE 1.5 mph /  2.4 km/h 3.5 mph /  5.6 km/h 97 % 0.00 in /  0 mm
23:47 42.5 °F /  5.8 °C 41.7 °F /  5.4 °C 29.71 in /  1006 hPa ENE 4.2 mph /  6.8 km/h 6.9 mph /  11.1 km/h 97 % 0.00 in /  0 mm
23:52 42.4 °F /  5.8 °C 41.6 °F /  5.3 °C 29.72 in /  1006.3 hPa ENE 0.1 mph /  0.2 km/h 2.3 mph /  3.7 km/h 97 % 0.00 in /  0 mm
23:57 42.4 °F /  5.8 °C 41.6 °F /  5.3 °C 29.72 in /  1006.3 hPa NE 1.0 mph /  1.6 km/h 3.5 mph /  5.6 km/h 97 % 0.00 in /  0 mm
Crab Meadow Weather
Compliments of Weather Underground - 3 mb

Script developed by  Jim McMurry - jmcmurry@mwt.net Adapted for the template by  Wim van der Kuil - Leuven-Template.eu

Astronomy: Mercury can get as hot as 800 degrees and can be as cold as 300 degrees below zero.